Terminal Aerodrome Forecast
Issued by NWS Cleveland, OH

Home | Current Version | Previous Version | Text Only | Print | Product List | Glossary On
Versions: 1 2 3 4 5 6 7 8 9 10 11 12 13 14 15 16 17 18 19 20 21 22 23
000
FTUS41 KCLE 220200 AAA
TAFTOL
TAF AMD
KTOL 220218Z 2202/2224 21003KT P6SM SCT030 BKN120
     FM220900 21003KT 4SM BR BKN030
     FM221300 24005KT P6SM VCTS OVC025CB
     FM221600 28005KT P6SM OVC035=

USA.gov is the U.S. government's official web portal to all federal, state and local government web resources and services.